Huvudsida
METAR-TAF:

METAR-TAF

Flygplatser :

Vadsø flygplats

Vadsø, Norge

latitud: 70-04N, longitud: 029-51E, höjd: 3 m

Aktuellt väderrapport

Denna rapport gjordes för 2 timmar och 23 minuter sedan, klockan 22:50 UTC
Vind 7 kt från syd
Temperatur 6°C
Fuktighet 70%
Tryck 1012 hPa
Sikt 10 km eller mer
Inga moln under 1 500 m eller inga cumulonimbus

METAR: ENVD 202250Z 18007KT CAVOK 06/01 Q1012

Tid: 03:13 (01:13 UTC)

Väderprognos

Denna rapport gjordes för 17 timmar och 13 minuter sedan, klockan 08:00 UTC
Prognos gäller från 20 kl. 10 UTC till 20 kl. 14 UTC
Vind 9 kt från väst/sydväst
Sikt 10 km eller mer
Brutna moln på en höjd av 2000 ft

TAF: ENVD 200800Z 2010/2014 24009KT 9999 BKN020

Aktuella väderrapporter och prognoser från 4000 flygplatser (METAR- och TAF-rapporter).

De tillgängliga stationerna syns som gula och röda prickar på kartan.

För musen över prickarna för att se namnen på stationerna.

Klicka sedan för att få väderrapporter och prognoser.

För att ändra kartan: Klicka på de gröna knapparna med ett svart kors på för att zooma in; den gröna knappen med ett streck på för att zooma ut; eller på de gröna pilarna för angränsande kartor.


METAR-TAF: